createdAt,value
2018-07-27T00:01:58.985Z,21.60
2018-07-27T00:04:26.779Z,21.70
2018-07-27T00:06:54.513Z,21.70
2018-07-27T00:09:22.258Z,21.80
2018-07-27T00:11:50.015Z,21.80
2018-07-27T00:14:17.797Z,21.80
2018-07-27T00:16:45.550Z,21.80
2018-07-27T00:19:13.280Z,21.70
2018-07-27T00:21:41.098Z,21.60
2018-07-27T00:24:08.832Z,21.50
2018-07-27T00:26:36.551Z,21.40
2018-07-27T00:29:04.337Z,21.50
2018-07-27T00:31:32.104Z,21.50
2018-07-27T00:33:59.875Z,21.40
2018-07-27T00:36:27.605Z,21.40
2018-07-27T00:38:55.365Z,21.40
2018-07-27T00:41:23.108Z,21.30
2018-07-27T00:43:50.848Z,21.30
2018-07-27T00:46:18.620Z,21.30
2018-07-27T00:48:46.391Z,21.30
2018-07-27T00:51:14.201Z,21.30
2018-07-27T00:53:41.909Z,21.20
2018-07-27T00:56:09.648Z,21.20
2018-07-27T00:58:37.417Z,21.20
2018-07-27T01:01:05.147Z,21.10
2018-07-27T01:03:32.960Z,21.20
2018-07-27T01:06:00.770Z,21.40
2018-07-27T01:08:31.911Z,21.40
2018-07-27T01:10:59.629Z,21.50
2018-07-27T01:13:27.395Z,21.70
2018-07-27T01:15:55.105Z,21.60
2018-07-27T01:18:26.796Z,21.60
2018-07-27T01:20:54.489Z,21.70
2018-07-27T01:23:22.221Z,21.70
2018-07-27T01:25:49.985Z,21.60
2018-07-27T01:28:17.707Z,21.60
2018-07-27T01:30:45.392Z,21.50
2018-07-27T01:33:14.131Z,21.60
2018-07-27T01:35:41.868Z,21.60
2018-07-27T01:38:10.564Z,21.50
2018-07-27T01:40:38.314Z,21.40
2018-07-27T01:43:44.502Z,21.40
2018-07-27T01:46:12.422Z,21.50
2018-07-27T01:48:40.365Z,21.50
2018-07-27T01:51:08.314Z,21.60
2018-07-27T01:53:36.240Z,21.60
2018-07-27T01:56:04.130Z,21.50
2018-07-27T01:58:32.045Z,21.50
2018-07-27T02:00:59.923Z,21.40
2018-07-27T02:03:27.851Z,21.50
2018-07-27T02:05:55.847Z,21.50
2018-07-27T02:08:23.788Z,21.70
2018-07-27T02:10:51.629Z,21.70
2018-07-27T02:13:19.603Z,21.60
2018-07-27T02:15:47.520Z,21.40
2018-07-27T02:18:15.433Z,21.40
2018-07-27T02:20:43.265Z,21.50
2018-07-27T02:23:11.288Z,21.50
2018-07-27T02:25:39.170Z,21.40
2018-07-27T02:28:07.113Z,21.30
2018-07-27T02:30:35.000Z,21.30
2018-07-27T02:33:02.905Z,21.40
2018-07-27T02:35:30.784Z,21.50
2018-07-27T02:37:58.807Z,21.50
2018-07-27T02:40:26.686Z,21.40
2018-07-27T02:42:54.625Z,21.40
2018-07-27T02:45:22.434Z,21.30
2018-07-27T02:47:50.159Z,21.20
2018-07-27T02:50:18.977Z,21.20
2018-07-27T02:52:46.844Z,21.10
2018-07-27T02:55:14.622Z,21.10
2018-07-27T02:57:42.331Z,21.10
2018-07-27T03:00:10.063Z,21.00
2018-07-27T03:02:37.772Z,21.00
2018-07-27T03:05:05.954Z,21.00
2018-07-27T03:07:33.724Z,21.00
2018-07-27T03:10:01.500Z,21.10
2018-07-27T03:12:29.249Z,20.90
2018-07-27T03:14:56.982Z,20.90
2018-07-27T03:17:24.756Z,20.80
2018-07-27T03:19:52.524Z,20.90
2018-07-27T03:22:20.235Z,20.70
2018-07-27T03:24:47.992Z,20.60
2018-07-27T03:27:15.697Z,20.50
2018-07-27T03:29:44.449Z,20.50
2018-07-27T03:32:12.187Z,20.50
2018-07-27T03:34:39.897Z,20.50
2018-07-27T03:37:07.576Z,20.40
2018-07-27T03:39:35.294Z,20.50
2018-07-27T03:42:03.079Z,20.40
2018-07-27T03:44:30.780Z,20.30
2018-07-27T03:46:58.485Z,20.10
2018-07-27T03:49:26.214Z,20.00
2018-07-27T03:51:53.936Z,20.20
2018-07-27T03:54:21.683Z,20.40
2018-07-27T03:56:49.397Z,20.30
2018-07-27T03:59:17.133Z,20.10
2018-07-27T04:01:44.854Z,20.10
2018-07-27T04:04:12.601Z,20.10
2018-07-27T04:06:40.356Z,20.20
2018-07-27T04:09:08.613Z,20.20
2018-07-27T04:11:36.472Z,20.00
2018-07-27T04:14:04.226Z,20.00
2018-07-27T04:16:31.958Z,20.20
2018-07-27T04:18:59.721Z,20.20
2018-07-27T04:21:27.509Z,20.20
2018-07-27T04:23:55.241Z,20.10
2018-07-27T04:26:23.071Z,20.20
2018-07-27T04:28:50.782Z,20.30
2018-07-27T04:31:18.563Z,20.40
2018-07-27T04:33:46.292Z,20.40
2018-07-27T04:36:14.016Z,20.40
2018-07-27T04:38:41.766Z,20.50
2018-07-27T04:41:09.464Z,20.50
2018-07-27T04:43:37.205Z,20.60
2018-07-27T04:46:04.975Z,20.70
2018-07-27T04:48:33.698Z,20.70
2018-07-27T04:51:01.472Z,20.80
2018-07-27T04:53:29.198Z,21.00
2018-07-27T04:55:56.947Z,21.20
2018-07-27T04:58:25.359Z,21.50
2018-07-27T05:00:53.106Z,21.50
2018-07-27T05:03:20.812Z,21.60
2018-07-27T05:05:48.575Z,21.70
2018-07-27T05:08:16.748Z,21.90
2018-07-27T05:10:48.360Z,22.20
2018-07-27T05:13:16.855Z,22.30
2018-07-27T05:15:45.674Z,22.40
2018-07-27T05:20:41.280Z,22.90
2018-07-27T05:23:19.272Z,23.10
2018-07-27T05:25:47.121Z,23.10
2018-07-27T05:28:14.845Z,23.20
2018-07-27T05:30:42.653Z,23.30
2018-07-27T05:33:10.372Z,23.30
2018-07-27T05:35:38.139Z,23.20
2018-07-27T05:38:07.868Z,23.20
2018-07-27T05:41:10.277Z,23.40
2018-07-27T05:43:38.279Z,23.60
2018-07-27T05:46:06.078Z,23.90
2018-07-27T05:48:33.884Z,23.90
2018-07-27T05:51:01.623Z,24.10
2018-07-27T05:53:29.314Z,24.20
2018-07-27T05:55:57.091Z,24.30
2018-07-27T05:58:25.856Z,24.40
2018-07-27T06:00:53.627Z,24.50
2018-07-27T06:03:21.380Z,24.50
2018-07-27T06:05:49.297Z,24.70
2018-07-27T06:08:17.021Z,24.80
2018-07-27T06:10:44.805Z,25.00
2018-07-27T06:13:12.640Z,25.10
2018-07-27T06:15:40.368Z,25.40
2018-07-27T06:18:08.332Z,25.70
2018-07-27T06:20:36.063Z,25.90
2018-07-27T06:23:03.873Z,26.10
2018-07-27T06:25:31.609Z,26.30
2018-07-27T06:27:59.371Z,26.30
2018-07-27T06:30:27.148Z,26.30
2018-07-27T06:32:54.978Z,26.60
2018-07-27T06:35:22.745Z,26.80
2018-07-27T06:37:52.550Z,27.00
2018-07-27T06:40:20.272Z,27.00
2018-07-27T06:42:47.969Z,26.80
2018-07-27T06:45:15.826Z,26.80
2018-07-27T06:47:43.564Z,27.00
2018-07-27T06:50:12.483Z,27.40
2018-07-27T06:52:40.213Z,27.70
2018-07-27T06:55:08.055Z,28.10
2018-07-27T06:57:35.809Z,28.40
2018-07-27T07:00:04.174Z,28.60
2018-07-27T07:02:31.932Z,28.70
2018-07-27T07:04:59.739Z,29.00
2018-07-27T07:07:27.520Z,29.20
2018-07-27T07:09:56.338Z,29.30
2018-07-27T07:12:24.241Z,29.30
2018-07-27T07:14:51.951Z,29.50
2018-07-27T07:17:20.124Z,29.80
2018-07-27T07:19:47.839Z,29.80
2018-07-27T07:22:16.718Z,30.30
2018-07-27T07:24:44.523Z,30.40
2018-07-27T07:27:12.260Z,30.50
2018-07-27T07:29:40.000Z,30.50
2018-07-27T07:32:07.803Z,30.50
2018-07-27T07:34:35.498Z,30.80
2018-07-27T07:37:03.354Z,31.50
2018-07-27T07:39:31.113Z,31.90
2018-07-27T07:41:58.951Z,32.20
2018-07-27T07:44:26.766Z,32.50
2018-07-27T07:46:54.604Z,32.50
2018-07-27T07:49:22.486Z,32.50
2018-07-27T07:51:50.305Z,32.70
2018-07-27T07:54:18.056Z,32.30
2018-07-27T07:56:45.932Z,32.00
2018-07-27T07:59:13.674Z,32.20
2018-07-27T08:01:42.576Z,32.50
2018-07-27T08:04:10.328Z,32.70
2018-07-27T08:06:38.264Z,32.80
2018-07-27T08:09:07.699Z,33.00
2018-07-27T08:11:35.500Z,32.70
2018-07-27T08:14:03.517Z,32.40
2018-07-27T08:16:31.245Z,32.70
2018-07-27T08:18:59.124Z,33.10
2018-07-27T08:21:27.368Z,33.60
2018-07-27T08:23:55.680Z,34.00
2018-07-27T08:27:10.415Z,34.10
2018-07-27T08:29:45.407Z,34.10
2018-07-27T08:32:13.552Z,34.40
2018-07-27T08:34:42.698Z,34.60
2018-07-27T08:37:10.566Z,34.10
2018-07-27T08:39:39.539Z,33.40
2018-07-27T08:42:07.405Z,33.30
2018-07-27T08:44:36.448Z,33.60
2018-07-27T08:47:04.307Z,34.10
2018-07-27T08:49:32.321Z,34.30
2018-07-27T08:52:00.181Z,34.40
2018-07-27T08:54:28.986Z,34.30
2018-07-27T08:56:57.935Z,34.10
2018-07-27T08:59:25.691Z,34.10
2018-07-27T09:01:54.647Z,34.30
2018-07-27T09:04:22.513Z,34.40
2018-07-27T09:06:50.368Z,34.50
2018-07-27T09:09:18.723Z,34.60
2018-07-27T09:11:47.587Z,34.80
2018-07-27T09:14:16.355Z,35.20
2018-07-27T09:16:44.138Z,35.30
2018-07-27T09:19:25.402Z,35.00
2018-07-27T09:21:53.122Z,35.10
2018-07-27T09:24:22.048Z,35.30
2018-07-27T09:26:49.717Z,35.50
2018-07-27T09:29:18.437Z,35.80
2018-07-27T09:31:46.256Z,36.40
2018-07-27T09:34:14.717Z,36.90
2018-07-27T09:36:42.517Z,37.00
2018-07-27T09:39:10.973Z,36.80
2018-07-27T09:41:38.724Z,36.80
2018-07-27T09:44:06.660Z,36.80
2018-07-27T09:46:34.738Z,36.90
2018-07-27T09:49:02.505Z,37.00
2018-07-27T09:51:35.668Z,37.20
2018-07-27T09:54:03.403Z,37.30
2018-07-27T09:56:33.316Z,37.50
2018-07-27T09:59:01.065Z,37.80
2018-07-27T10:01:42.597Z,37.70
2018-07-27T10:04:10.325Z,37.60
2018-07-27T10:06:41.530Z,37.40
2018-07-27T10:09:09.254Z,37.40
2018-07-27T10:11:37.064Z,37.30
2018-07-27T10:14:08.229Z,37.20
2018-07-27T10:16:35.960Z,37.30
2018-07-27T10:19:11.498Z,37.60
2018-07-27T10:21:39.236Z,37.80
2018-07-27T10:24:11.004Z,37.90
2018-07-27T10:26:38.673Z,37.90
2018-07-27T10:29:14.299Z,37.90
2018-07-27T10:31:42.347Z,38.40
2018-07-27T10:34:10.287Z,38.60
2018-07-27T10:36:37.956Z,38.70
2018-07-27T10:39:08.309Z,38.90
2018-07-27T10:41:36.107Z,39.00
2018-07-27T10:44:04.045Z,39.50
2018-07-27T10:46:32.183Z,40.00
2018-07-27T10:49:00.077Z,39.20
2018-07-27T10:51:28.381Z,39.00
2018-07-27T10:53:56.299Z,38.50
2018-07-27T10:56:24.500Z,38.40
2018-07-27T10:58:52.452Z,38.30
2018-07-27T11:01:20.559Z,38.30
2018-07-27T11:03:48.446Z,38.10
2018-07-27T11:06:16.561Z,38.00
2018-07-27T11:08:44.487Z,38.20
2018-07-27T11:11:13.571Z,38.80
2018-07-27T11:13:41.504Z,39.00
2018-07-27T11:16:09.696Z,39.20
2018-07-27T11:18:37.622Z,39.80
2018-07-27T11:21:05.618Z,39.70
2018-07-27T11:23:33.530Z,40.10
2018-07-27T11:26:01.668Z,39.40
2018-07-27T11:28:29.636Z,38.90
2018-07-27T11:30:57.858Z,39.20
2018-07-27T11:33:25.789Z,39.60
2018-07-27T11:35:54.027Z,39.90
2018-07-27T11:38:21.927Z,40.10
2018-07-27T11:40:50.103Z,39.70
2018-07-27T11:43:25.726Z,39.70
2018-07-27T11:45:53.617Z,40.50
2018-07-27T11:48:21.355Z,41.30
2018-07-27T11:50:49.145Z,40.60
2018-07-27T11:53:16.912Z,40.20
2018-07-27T11:55:44.913Z,40.20
2018-07-27T11:58:12.886Z,39.40
2018-07-27T12:00:40.873Z,39.70
2018-07-27T12:03:08.775Z,40.30
2018-07-27T12:05:36.799Z,41.10
2018-07-27T12:08:04.739Z,41.40
2018-07-27T12:10:33.960Z,40.60
2018-07-27T12:13:01.884Z,40.10
2018-07-27T12:15:29.926Z,39.30
2018-07-27T12:17:57.819Z,40.30
2018-07-27T12:20:25.909Z,41.60
2018-07-27T12:22:53.784Z,42.20
2018-07-27T12:25:21.747Z,42.00
2018-07-27T12:27:49.660Z,42.00
2018-07-27T12:30:17.771Z,41.80
2018-07-27T12:32:45.680Z,40.90
2018-07-27T12:35:13.842Z,39.30
2018-07-27T12:37:41.719Z,38.30
2018-07-27T12:40:09.715Z,38.80
2018-07-27T12:42:37.638Z,40.00
2018-07-27T12:45:05.725Z,40.80
2018-07-27T12:47:33.669Z,41.10
2018-07-27T12:50:01.643Z,40.70
2018-07-27T12:52:31.035Z,40.40
2018-07-27T12:54:58.963Z,39.50
2018-07-27T12:57:26.737Z,38.60
2018-07-27T12:59:54.481Z,37.60
2018-07-27T13:02:22.231Z,37.20
2018-07-27T13:04:49.961Z,36.80
2018-07-27T13:07:17.752Z,36.70
2018-07-27T13:09:45.590Z,36.70
2018-07-27T13:12:13.333Z,36.50
2018-07-27T13:14:41.096Z,36.20
2018-07-27T13:17:08.892Z,35.90
2018-07-27T13:19:36.619Z,35.70
2018-07-27T13:22:04.381Z,35.50
2018-07-27T13:24:58.279Z,34.50
2018-07-27T13:27:00.015Z,32.40
2018-07-27T13:29:27.778Z,30.70
2018-07-27T13:31:56.646Z,30.10
2018-07-27T13:34:30.411Z,30.20
2018-07-27T13:36:58.317Z,30.50
2018-07-27T13:39:26.061Z,30.90
2018-07-27T13:41:53.806Z,31.20
2018-07-27T13:44:22.336Z,31.70
2018-07-27T13:47:11.023Z,34.40
2018-07-27T13:49:38.851Z,34.40
2018-07-27T13:52:06.605Z,36.60
2018-07-27T13:54:34.902Z,38.40
2018-07-27T13:57:02.838Z,39.40
2018-07-27T13:59:30.594Z,40.00
2018-07-27T14:01:58.333Z,37.20
2018-07-27T14:04:26.131Z,35.00
2018-07-27T14:06:55.037Z,33.30
2018-07-27T14:09:22.789Z,32.50
2018-07-27T14:11:50.613Z,32.40
2018-07-27T14:14:18.411Z,33.20
2018-07-27T14:16:46.221Z,32.60
2018-07-27T14:19:14.760Z,32.50
2018-07-27T14:21:42.673Z,32.50
2018-07-27T14:24:10.242Z,32.80
2018-07-27T14:26:38.137Z,32.70
2018-07-27T14:29:05.996Z,32.70
2018-07-27T14:31:33.836Z,32.60
2018-07-27T14:34:01.626Z,33.70
2018-07-27T14:36:29.433Z,35.00
2018-07-27T14:38:57.200Z,34.60
2018-07-27T14:41:24.936Z,34.50
2018-07-27T14:43:52.762Z,34.80
2018-07-27T14:46:20.598Z,35.10
2018-07-27T14:48:48.355Z,35.60
2018-07-27T14:51:16.221Z,35.70
2018-07-27T14:53:44.044Z,35.50
2018-07-27T14:56:11.763Z,35.50
2018-07-27T14:58:39.483Z,35.60
2018-07-27T15:01:07.311Z,36.50
2018-07-27T15:03:35.051Z,36.60
2018-07-27T15:06:02.824Z,35.80
2018-07-27T15:08:30.516Z,35.30
2018-07-27T15:10:58.257Z,35.20
2018-07-27T15:13:26.047Z,36.00
2018-07-27T15:15:53.801Z,37.00
2018-07-27T15:18:21.563Z,38.10
2018-07-27T15:20:49.326Z,38.30
2018-07-27T15:23:30.787Z,38.10
2018-07-27T15:25:58.838Z,38.10
2018-07-27T15:28:26.895Z,37.50
2018-07-27T15:30:54.862Z,37.30
2018-07-27T15:33:22.939Z,37.70
2018-07-27T15:35:51.049Z,38.20
2018-07-27T15:38:19.081Z,38.90
2018-07-27T15:40:47.008Z,39.40
2018-07-27T15:43:14.989Z,39.30
2018-07-27T15:45:42.872Z,38.50
2018-07-27T15:48:10.931Z,37.70
2018-07-27T15:50:38.837Z,37.40
2018-07-27T15:53:06.811Z,36.90
2018-07-27T15:55:34.709Z,36.40
2018-07-27T15:58:02.766Z,36.10
2018-07-27T16:00:30.709Z,35.80
2018-07-27T16:02:58.684Z,35.80
2018-07-27T16:05:26.616Z,35.70
2018-07-27T16:07:54.580Z,35.50
2018-07-27T16:10:22.480Z,35.40
2018-07-27T16:12:50.565Z,35.20
2018-07-27T16:15:18.479Z,35.00
2018-07-27T16:17:46.447Z,34.90
2018-07-27T16:20:14.430Z,34.40
2018-07-27T16:22:42.404Z,34.30
2018-07-27T16:25:10.314Z,34.10
2018-07-27T16:27:38.085Z,34.00
2018-07-27T16:30:05.825Z,33.80
2018-07-27T16:32:33.628Z,33.70
2018-07-27T16:35:01.355Z,33.60
2018-07-27T16:37:29.099Z,33.40
2018-07-27T16:39:56.866Z,33.30
2018-07-27T16:42:24.590Z,33.10
2018-07-27T16:44:52.332Z,33.10
2018-07-27T16:47:21.083Z,33.20
2018-07-27T16:49:48.805Z,33.00
2018-07-27T16:52:16.534Z,33.00
2018-07-27T16:54:44.270Z,32.80
2018-07-27T16:57:12.076Z,32.90
2018-07-27T16:59:39.845Z,32.80
2018-07-27T17:02:07.576Z,32.80
2018-07-27T17:04:35.316Z,32.80
2018-07-27T17:07:03.539Z,32.80
2018-07-27T17:09:31.275Z,32.80
2018-07-27T17:11:59.021Z,32.80
2018-07-27T17:14:30.928Z,32.80
2018-07-27T17:16:58.760Z,32.80
2018-07-27T17:19:27.498Z,32.70
2018-07-27T17:21:55.233Z,32.70
2018-07-27T17:24:23.213Z,32.70
2018-07-27T17:26:51.951Z,32.60
2018-07-27T17:29:19.687Z,32.70
2018-07-27T17:31:47.561Z,32.80
2018-07-27T17:34:15.311Z,32.80
2018-07-27T17:36:43.093Z,32.70
2018-07-27T17:39:11.226Z,32.70
2018-07-27T17:41:39.234Z,32.60
2018-07-27T17:44:07.603Z,32.40
2018-07-27T17:46:35.329Z,32.30
2018-07-27T17:49:03.118Z,32.30
2018-07-27T17:51:30.849Z,32.10
2018-07-27T17:53:58.569Z,32.00
2018-07-27T17:56:26.295Z,31.90
2018-07-27T17:58:54.033Z,31.50
2018-07-27T18:01:22.244Z,31.40
2018-07-27T18:03:49.988Z,31.30
2018-07-27T18:06:17.808Z,31.30
2018-07-27T18:08:45.545Z,31.40
2018-07-27T18:11:13.295Z,31.40
2018-07-27T18:13:41.040Z,31.50
2018-07-27T18:16:09.047Z,31.50
2018-07-27T18:18:36.775Z,31.40
2018-07-27T18:21:04.529Z,31.40
2018-07-27T18:23:32.338Z,31.40
2018-07-27T18:26:00.070Z,31.30
2018-07-27T18:28:27.782Z,31.30
2018-07-27T18:30:55.528Z,31.20
2018-07-27T18:33:23.275Z,31.10
2018-07-27T18:35:51.016Z,31.10
2018-07-27T18:38:18.723Z,31.00
2018-07-27T18:40:46.532Z,30.90
2018-07-27T18:43:14.317Z,30.90
2018-07-27T18:45:42.082Z,30.80
2018-07-27T18:48:09.840Z,30.50
2018-07-27T18:50:37.651Z,30.30
2018-07-27T18:53:05.423Z,30.10
2018-07-27T18:55:33.154Z,30.00
2018-07-27T18:58:00.882Z,29.90
2018-07-27T19:00:28.627Z,29.70
2018-07-27T19:02:56.437Z,29.70
2018-07-27T19:05:24.198Z,29.50
2018-07-27T19:07:53.070Z,29.50
2018-07-27T19:10:20.835Z,29.40
2018-07-27T19:12:48.612Z,29.40
2018-07-27T19:15:16.402Z,29.40
2018-07-27T19:17:44.132Z,29.50
2018-07-27T19:20:11.883Z,29.30
2018-07-27T19:22:39.645Z,29.10
2018-07-27T19:25:07.379Z,29.00
2018-07-27T19:27:36.096Z,28.80
2018-07-27T19:30:06.037Z,28.70
2018-07-27T19:32:33.800Z,28.60
2018-07-27T19:35:01.581Z,28.70
2018-07-27T19:37:29.385Z,28.70
2018-07-27T19:39:57.178Z,28.50
2018-07-27T19:42:24.951Z,28.30
2018-07-27T19:44:52.716Z,28.00
2018-07-27T19:47:20.474Z,27.80
2018-07-27T19:49:48.457Z,27.60
2018-07-27T19:52:16.254Z,27.40
2018-07-27T19:54:44.008Z,27.20
2018-07-27T19:57:11.810Z,27.10
2018-07-27T19:59:39.832Z,27.00
2018-07-27T20:02:07.600Z,26.90
2018-07-27T20:04:35.424Z,26.80
2018-07-27T20:07:03.226Z,26.70
2018-07-27T20:09:30.987Z,26.60
2018-07-27T20:11:58.713Z,26.50
2018-07-27T20:14:27.474Z,26.40
2018-07-27T20:16:55.211Z,26.30
2018-07-27T20:19:22.966Z,26.20
2018-07-27T20:21:50.718Z,26.10
2018-07-27T20:24:19.482Z,26.00
2018-07-27T20:26:47.269Z,25.90
2018-07-27T20:29:15.066Z,25.80
2018-07-27T20:31:42.871Z,25.80
2018-07-27T20:34:10.653Z,25.70
2018-07-27T20:36:38.411Z,25.70
2018-07-27T20:39:08.501Z,25.60
2018-07-27T20:41:36.277Z,25.60
2018-07-27T20:44:04.097Z,25.50
2018-07-27T20:46:31.832Z,25.50
2018-07-27T20:48:59.580Z,25.50
2018-07-27T20:51:27.367Z,25.50
2018-07-27T20:53:55.070Z,25.50
2018-07-27T20:56:22.787Z,25.50
2018-07-27T20:58:52.638Z,25.40
2018-07-27T21:01:20.382Z,25.20
2018-07-27T21:03:49.216Z,25.10
2018-07-27T21:06:17.041Z,25.00
2018-07-27T21:08:44.799Z,25.00
2018-07-27T21:11:12.515Z,24.90
2018-07-27T21:13:40.282Z,24.80
2018-07-27T21:16:08.040Z,24.70
2018-07-27T21:18:36.871Z,24.60
2018-07-27T21:21:04.621Z,24.50
2018-07-27T21:23:32.361Z,24.30
2018-07-27T21:26:00.154Z,24.10
2018-07-27T21:28:27.900Z,24.00
2018-07-27T21:30:55.667Z,23.80
2018-07-27T21:33:23.379Z,23.70
2018-07-27T21:35:51.171Z,23.50
2018-07-27T21:38:18.880Z,23.40
2018-07-27T21:40:46.597Z,23.30
2018-07-27T21:43:14.427Z,23.30
2018-07-27T21:45:42.253Z,23.10
2018-07-27T21:48:10.215Z,22.90
2018-07-27T21:50:38.016Z,22.50
2018-07-27T21:53:05.820Z,22.30
2018-07-27T21:55:33.627Z,22.10
2018-07-27T21:58:01.690Z,21.90
2018-07-27T22:00:32.267Z,21.70
2018-07-27T22:03:00.446Z,21.50
2018-07-27T22:05:28.227Z,21.40
2018-07-27T22:07:56.022Z,21.20
2018-07-27T22:10:24.333Z,21.20
2018-07-27T22:12:52.172Z,21.20
2018-07-27T22:15:22.444Z,21.10
2018-07-27T22:17:50.409Z,21.10
2018-07-27T22:20:18.411Z,21.10
2018-07-27T22:22:46.613Z,21.10
2018-07-27T22:25:14.413Z,21.10
2018-07-27T22:27:42.478Z,21.20
2018-07-27T22:30:11.122Z,21.30
2018-07-27T22:32:38.933Z,21.30
2018-07-27T22:35:06.916Z,21.40
2018-07-27T22:37:34.756Z,21.40
2018-07-27T22:40:02.590Z,21.40
2018-07-27T22:42:30.362Z,21.40
2018-07-27T22:44:58.159Z,21.40
2018-07-27T22:47:25.941Z,21.30
2018-07-27T22:49:53.724Z,21.30
2018-07-27T22:52:21.488Z,21.30
2018-07-27T22:54:49.398Z,21.30
2018-07-27T22:57:17.146Z,21.30
2018-07-27T22:59:44.912Z,21.30
2018-07-27T23:02:12.638Z,21.20
2018-07-27T23:04:40.475Z,21.10
2018-07-27T23:07:08.271Z,21.10
2018-07-27T23:09:36.008Z,21.10
2018-07-27T23:12:03.844Z,21.10
2018-07-27T23:14:31.884Z,21.10
2018-07-27T23:16:59.756Z,21.10
2018-07-27T23:19:27.531Z,21.00
2018-07-27T23:21:55.305Z,21.00
2018-07-27T23:24:23.374Z,21.00
2018-07-27T23:26:51.368Z,21.10
2018-07-27T23:29:19.464Z,21.10
2018-07-27T23:31:47.463Z,21.10
2018-07-27T23:34:15.576Z,21.20
2018-07-27T23:36:43.589Z,21.20
2018-07-27T23:39:13.117Z,21.20
2018-07-27T23:41:41.509Z,21.20
2018-07-27T23:44:09.463Z,21.40
2018-07-27T23:46:37.498Z,21.40
2018-07-27T23:49:05.649Z,21.40
2018-07-27T23:51:33.571Z,21.40
2018-07-27T23:54:01.577Z,21.40
2018-07-27T23:56:29.467Z,21.40
2018-07-27T23:58:57.354Z,21.40
